Terminal Aerodrome Forecast
Issued by NWS

Home | Current Version | Previous Version | Text Only | Print | Product List | Glossary On
Versions: 1 2 3 4 5 6 7 8 9 10 11 12 13 14 15 16
000
FTUS43 KPAH 182300
TAFCGI
TAF
KCGI 182332Z 1900/1924 VRB03KT P6SM SKC
      TEMPO 1909/1913 3SM BR BCFG
     FM191600 20004KT P6SM FEW250=

USA.gov is the U.S. government's official web portal to all federal, state and local government web resources and services.